sensor_id;sensor_type;location;lat;lon;timestamp;P1;durP1;ratioP1;P2;durP2;ratioP2
12840;SDS011;6487;48.626;12.486;2023-05-07T00:00:47;1.90;;;1.63;;
12840;SDS011;6487;48.626;12.486;2023-05-07T00:03:16;2.47;;;2.00;;
12840;SDS011;6487;48.626;12.486;2023-05-07T00:05:45;4.37;;;2.40;;
12840;SDS011;6487;48.626;12.486;2023-05-07T00:08:14;4.30;;;3.27;;
12840;SDS011;6487;48.626;12.486;2023-05-07T00:10:42;4.57;;;3.20;;
12840;SDS011;6487;48.626;12.486;2023-05-07T00:13:12;3.10;;;2.27;;
12840;SDS011;6487;48.626;12.486;2023-05-07T00:15:40;2.53;;;2.07;;
12840;SDS011;6487;48.626;12.486;2023-05-07T00:18:09;2.43;;;2.13;;
12840;SDS011;6487;48.626;12.486;2023-05-07T00:20:37;3.13;;;2.33;;
12840;SDS011;6487;48.626;12.486;2023-05-07T00:23:05;3.37;;;2.30;;
12840;SDS011;6487;48.626;12.486;2023-05-07T00:25:34;3.33;;;2.20;;
12840;SDS011;6487;48.626;12.486;2023-05-07T00:28:02;2.43;;;1.93;;
12840;SDS011;6487;48.626;12.486;2023-05-07T00:30:32;2.03;;;1.83;;
12840;SDS011;6487;48.626;12.486;2023-05-07T00:33:00;2.10;;;1.83;;
12840;SDS011;6487;48.626;12.486;2023-05-07T00:35:29;2.20;;;1.80;;
12840;SDS011;6487;48.626;12.486;2023-05-07T00:37:57;2.37;;;2.17;;
12840;SDS011;6487;48.626;12.486;2023-05-07T00:40:26;2.33;;;2.13;;
12840;SDS011;6487;48.626;12.486;2023-05-07T00:42:54;2.00;;;1.80;;
12840;SDS011;6487;48.626;12.486;2023-05-07T00:45:25;3.80;;;1.87;;
12840;SDS011;6487;48.626;12.486;2023-05-07T00:47:57;2.20;;;2.00;;
12840;SDS011;6487;48.626;12.486;2023-05-07T00:50:27;5.57;;;2.33;;
12840;SDS011;6487;48.626;12.486;2023-05-07T00:52:56;2.07;;;1.90;;
12840;SDS011;6487;48.626;12.486;2023-05-07T00:55:24;2.30;;;1.73;;
12840;SDS011;6487;48.626;12.486;2023-05-07T00:57:53;1.93;;;1.50;;
12840;SDS011;6487;48.626;12.486;2023-05-07T01:00:21;2.27;;;1.60;;
12840;SDS011;6487;48.626;12.486;2023-05-07T01:02:51;2.30;;;2.10;;
12840;SDS011;6487;48.626;12.486;2023-05-07T01:05:21;4.00;;;2.00;;
12840;SDS011;6487;48.626;12.486;2023-05-07T01:07:55;2.03;;;1.90;;
12840;SDS011;6487;48.626;12.486;2023-05-07T01:10:25;2.13;;;1.83;;
12840;SDS011;6487;48.626;12.486;2023-05-07T01:12:54;2.50;;;2.00;;
12840;SDS011;6487;48.626;12.486;2023-05-07T01:15:28;1.87;;;1.77;;
12840;SDS011;6487;48.626;12.486;2023-05-07T01:17:57;3.23;;;2.00;;
12840;SDS011;6487;48.626;12.486;2023-05-07T01:20:30;2.90;;;2.00;;
12840;SDS011;6487;48.626;12.486;2023-05-07T01:23:03;2.90;;;2.70;;
12840;SDS011;6487;48.626;12.486;2023-05-07T01:25:32;1.80;;;1.70;;
12840;SDS011;6487;48.626;12.486;2023-05-07T01:28:01;2.50;;;2.10;;
12840;SDS011;6487;48.626;12.486;2023-05-07T01:30:29;3.00;;;1.77;;
12840;SDS011;6487;48.626;12.486;2023-05-07T01:32:58;2.80;;;2.10;;
12840;SDS011;6487;48.626;12.486;2023-05-07T01:35:32;5.43;;;1.97;;
12840;SDS011;6487;48.626;12.486;2023-05-07T01:38:07;5.10;;;1.60;;
12840;SDS011;6487;48.626;12.486;2023-05-07T01:40:39;3.10;;;2.20;;
12840;SDS011;6487;48.626;12.486;2023-05-07T01:43:10;6.00;;;2.20;;
12840;SDS011;6487;48.626;12.486;2023-05-07T01:45:41;2.23;;;2.13;;
12840;SDS011;6487;48.626;12.486;2023-05-07T01:48:11;4.57;;;2.20;;
12840;SDS011;6487;48.626;12.486;2023-05-07T01:50:41;2.87;;;1.97;;
12840;SDS011;6487;48.626;12.486;2023-05-07T01:53:12;4.20;;;2.20;;
12840;SDS011;6487;48.626;12.486;2023-05-07T01:55:40;2.20;;;2.07;;
12840;SDS011;6487;48.626;12.486;2023-05-07T01:58:08;3.83;;;2.17;;
12840;SDS011;6487;48.626;12.486;2023-05-07T02:00:37;2.50;;;2.30;;
12840;SDS011;6487;48.626;12.486;2023-05-07T02:05:35;3.63;;;2.10;;
12840;SDS011;6487;48.626;12.486;2023-05-07T02:08:03;2.37;;;2.17;;
12840;SDS011;6487;48.626;12.486;2023-05-07T02:10:33;2.60;;;2.40;;
12840;SDS011;6487;48.626;12.486;2023-05-07T02:13:02;2.17;;;1.90;;
12840;SDS011;6487;48.626;12.486;2023-05-07T02:15:31;3.03;;;2.40;;
12840;SDS011;6487;48.626;12.486;2023-05-07T02:18:00;3.80;;;2.33;;
12840;SDS011;6487;48.626;12.486;2023-05-07T02:20:30;3.97;;;2.53;;
12840;SDS011;6487;48.626;12.486;2023-05-07T02:22:59;2.53;;;2.30;;
12840;SDS011;6487;48.626;12.486;2023-05-07T02:25:27;2.10;;;2.00;;
12840;SDS011;6487;48.626;12.486;2023-05-07T02:27:58;4.90;;;2.13;;
12840;SDS011;6487;48.626;12.486;2023-05-07T02:30:26;2.43;;;2.10;;
12840;SDS011;6487;48.626;12.486;2023-05-07T02:32:54;3.27;;;2.10;;
12840;SDS011;6487;48.626;12.486;2023-05-07T02:35:25;3.07;;;1.90;;
12840;SDS011;6487;48.626;12.486;2023-05-07T02:37:54;4.23;;;2.20;;
12840;SDS011;6487;48.626;12.486;2023-05-07T02:40:22;2.63;;;2.43;;
12840;SDS011;6487;48.626;12.486;2023-05-07T02:42:54;2.10;;;2.00;;
12840;SDS011;6487;48.626;12.486;2023-05-07T02:45:24;4.60;;;2.03;;
12840;SDS011;6487;48.626;12.486;2023-05-07T02:47:52;2.70;;;2.50;;
12840;SDS011;6487;48.626;12.486;2023-05-07T02:50:21;4.20;;;2.40;;
12840;SDS011;6487;48.626;12.486;2023-05-07T02:52:49;2.40;;;2.20;;
12840;SDS011;6487;48.626;12.486;2023-05-07T02:55:20;2.50;;;1.90;;
12840;SDS011;6487;48.626;12.486;2023-05-07T02:57:49;3.80;;;2.20;;
12840;SDS011;6487;48.626;12.486;2023-05-07T03:00:18;2.50;;;2.30;;
12840;SDS011;6487;48.626;12.486;2023-05-07T03:02:50;3.80;;;2.70;;
12840;SDS011;6487;48.626;12.486;2023-05-07T03:05:18;2.47;;;2.27;;
12840;SDS011;6487;48.626;12.486;2023-05-07T03:07:46;3.80;;;2.20;;
12840;SDS011;6487;48.626;12.486;2023-05-07T03:10:15;3.30;;;2.60;;
12840;SDS011;6487;48.626;12.486;2023-05-07T03:12:44;2.47;;;2.30;;
12840;SDS011;6487;48.626;12.486;2023-05-07T03:15:13;2.57;;;2.37;;
12840;SDS011;6487;48.626;12.486;2023-05-07T03:17:41;4.37;;;2.70;;
12840;SDS011;6487;48.626;12.486;2023-05-07T03:20:11;5.30;;;2.33;;
12840;SDS011;6487;48.626;12.486;2023-05-07T03:22:40;3.50;;;2.33;;
12840;SDS011;6487;48.626;12.486;2023-05-07T03:25:08;2.50;;;2.30;;
12840;SDS011;6487;48.626;12.486;2023-05-07T03:27:37;2.60;;;2.20;;
12840;SDS011;6487;48.626;12.486;2023-05-07T03:30:06;2.53;;;2.33;;
12840;SDS011;6487;48.626;12.486;2023-05-07T03:32:38;2.40;;;2.20;;
12840;SDS011;6487;48.626;12.486;2023-05-07T03:35:07;2.40;;;2.20;;
12840;SDS011;6487;48.626;12.486;2023-05-07T03:37:37;2.47;;;2.10;;
12840;SDS011;6487;48.626;12.486;2023-05-07T03:40:06;3.73;;;2.50;;
12840;SDS011;6487;48.626;12.486;2023-05-07T03:42:37;2.83;;;2.30;;
12840;SDS011;6487;48.626;12.486;2023-05-07T03:45:06;4.50;;;2.23;;
12840;SDS011;6487;48.626;12.486;2023-05-07T03:47:36;3.30;;;3.00;;
12840;SDS011;6487;48.626;12.486;2023-05-07T03:50:04;4.93;;;2.57;;
12840;SDS011;6487;48.626;12.486;2023-05-07T03:52:38;4.60;;;3.13;;
12840;SDS011;6487;48.626;12.486;2023-05-07T03:55:07;4.63;;;3.17;;
12840;SDS011;6487;48.626;12.486;2023-05-07T03:57:36;8.83;;;3.40;;
12840;SDS011;6487;48.626;12.486;2023-05-07T04:00:07;3.20;;;2.93;;
12840;SDS011;6487;48.626;12.486;2023-05-07T04:02:37;4.60;;;2.53;;
12840;SDS011;6487;48.626;12.486;2023-05-07T04:05:06;5.60;;;2.97;;
12840;SDS011;6487;48.626;12.486;2023-05-07T04:07:35;3.03;;;2.80;;
12840;SDS011;6487;48.626;12.486;2023-05-07T04:10:06;3.00;;;2.70;;
12840;SDS011;6487;48.626;12.486;2023-05-07T04:12:35;4.20;;;3.10;;
12840;SDS011;6487;48.626;12.486;2023-05-07T04:15:03;4.00;;;3.17;;
12840;SDS011;6487;48.626;12.486;2023-05-07T04:17:33;3.67;;;2.83;;
12840;SDS011;6487;48.626;12.486;2023-05-07T04:20:05;4.97;;;2.70;;
12840;SDS011;6487;48.626;12.486;2023-05-07T04:22:37;3.10;;;2.80;;
12840;SDS011;6487;48.626;12.486;2023-05-07T04:25:07;4.03;;;2.70;;
12840;SDS011;6487;48.626;12.486;2023-05-07T04:27:37;5.83;;;3.43;;
12840;SDS011;6487;48.626;12.486;2023-05-07T04:30:06;3.63;;;3.33;;
12840;SDS011;6487;48.626;12.486;2023-05-07T04:32:35;3.30;;;3.00;;
12840;SDS011;6487;48.626;12.486;2023-05-07T04:35:04;3.13;;;2.67;;
12840;SDS011;6487;48.626;12.486;2023-05-07T04:37:33;4.80;;;3.23;;
12840;SDS011;6487;48.626;12.486;2023-05-07T04:40:02;3.57;;;2.97;;
12840;SDS011;6487;48.626;12.486;2023-05-07T04:42:36;3.23;;;2.93;;
12840;SDS011;6487;48.626;12.486;2023-05-07T04:45:05;3.70;;;3.30;;
12840;SDS011;6487;48.626;12.486;2023-05-07T04:47:34;3.80;;;3.50;;
12840;SDS011;6487;48.626;12.486;2023-05-07T04:50:03;3.50;;;3.20;;
12840;SDS011;6487;48.626;12.486;2023-05-07T04:52:35;3.60;;;3.30;;
12840;SDS011;6487;48.626;12.486;2023-05-07T04:55:03;4.43;;;3.83;;
12840;SDS011;6487;48.626;12.486;2023-05-07T04:57:32;3.87;;;3.57;;
12840;SDS011;6487;48.626;12.486;2023-05-07T05:00:02;5.10;;;4.57;;
12840;SDS011;6487;48.626;12.486;2023-05-07T05:02:34;6.70;;;4.53;;
12840;SDS011;6487;48.626;12.486;2023-05-07T05:05:03;4.30;;;4.00;;
12840;SDS011;6487;48.626;12.486;2023-05-07T05:07:33;5.30;;;4.80;;
12840;SDS011;6487;48.626;12.486;2023-05-07T05:10:01;6.07;;;5.57;;
12840;SDS011;6487;48.626;12.486;2023-05-07T05:12:30;7.23;;;6.00;;
12840;SDS011;6487;48.626;12.486;2023-05-07T05:15:03;8.20;;;7.30;;
12840;SDS011;6487;48.626;12.486;2023-05-07T05:17:33;8.17;;;7.37;;
12840;SDS011;6487;48.626;12.486;2023-05-07T05:20:03;7.97;;;7.17;;
12840;SDS011;6487;48.626;12.486;2023-05-07T05:22:40;7.23;;;6.53;;
12840;SDS011;6487;48.626;12.486;2023-05-07T05:25:09;6.97;;;6.33;;
12840;SDS011;6487;48.626;12.486;2023-05-07T05:27:37;6.87;;;6.27;;
12840;SDS011;6487;48.626;12.486;2023-05-07T05:30:07;6.27;;;5.67;;
12840;SDS011;6487;48.626;12.486;2023-05-07T05:32:37;6.40;;;5.83;;
12840;SDS011;6487;48.626;12.486;2023-05-07T05:35:06;5.17;;;4.77;;
12840;SDS011;6487;48.626;12.486;2023-05-07T05:37:38;5.53;;;4.97;;
12840;SDS011;6487;48.626;12.486;2023-05-07T05:40:07;6.57;;;5.23;;
12840;SDS011;6487;48.626;12.486;2023-05-07T05:42:36;5.77;;;5.20;;
12840;SDS011;6487;48.626;12.486;2023-05-07T05:45:05;5.60;;;5.10;;
12840;SDS011;6487;48.626;12.486;2023-05-07T05:47:40;6.17;;;5.57;;
12840;SDS011;6487;48.626;12.486;2023-05-07T05:50:09;5.90;;;5.40;;
12840;SDS011;6487;48.626;12.486;2023-05-07T05:52:38;5.70;;;5.20;;
12840;SDS011;6487;48.626;12.486;2023-05-07T05:55:07;5.97;;;5.47;;
12840;SDS011;6487;48.626;12.486;2023-05-07T05:57:36;6.60;;;5.30;;
12840;SDS011;6487;48.626;12.486;2023-05-07T06:00:05;7.13;;;5.50;;
12840;SDS011;6487;48.626;12.486;2023-05-07T06:02:37;8.60;;;5.33;;
12840;SDS011;6487;48.626;12.486;2023-05-07T06:05:12;5.07;;;4.70;;
12840;SDS011;6487;48.626;12.486;2023-05-07T06:07:40;5.07;;;4.67;;
12840;SDS011;6487;48.626;12.486;2023-05-07T06:10:08;5.40;;;4.90;;
12840;SDS011;6487;48.626;12.486;2023-05-07T06:12:38;5.27;;;4.87;;
12840;SDS011;6487;48.626;12.486;2023-05-07T06:15:11;4.80;;;4.50;;
12840;SDS011;6487;48.626;12.486;2023-05-07T06:17:40;5.50;;;5.00;;
12840;SDS011;6487;48.626;12.486;2023-05-07T06:20:08;5.30;;;4.90;;
12840;SDS011;6487;48.626;12.486;2023-05-07T06:22:37;5.30;;;4.90;;
12840;SDS011;6487;48.626;12.486;2023-05-07T06:25:06;5.17;;;4.77;;
12840;SDS011;6487;48.626;12.486;2023-05-07T06:27:35;4.97;;;4.57;;
12840;SDS011;6487;48.626;12.486;2023-05-07T06:30:06;5.17;;;4.70;;
12840;SDS011;6487;48.626;12.486;2023-05-07T06:32:37;5.17;;;4.77;;
12840;SDS011;6487;48.626;12.486;2023-05-07T06:35:05;7.87;;;4.37;;
12840;SDS011;6487;48.626;12.486;2023-05-07T06:37:34;5.33;;;4.87;;
12840;SDS011;6487;48.626;12.486;2023-05-07T06:40:05;5.20;;;4.70;;
12840;SDS011;6487;48.626;12.486;2023-05-07T06:42:36;5.67;;;5.17;;
12840;SDS011;6487;48.626;12.486;2023-05-07T06:45:05;5.20;;;4.80;;
12840;SDS011;6487;48.626;12.486;2023-05-07T06:47:42;4.53;;;4.13;;
12840;SDS011;6487;48.626;12.486;2023-05-07T06:50:11;4.97;;;4.47;;
12840;SDS011;6487;48.626;12.486;2023-05-07T06:52:43;5.27;;;4.57;;
12840;SDS011;6487;48.626;12.486;2023-05-07T06:55:11;5.47;;;4.47;;
12840;SDS011;6487;48.626;12.486;2023-05-07T06:57:40;4.60;;;4.20;;
12840;SDS011;6487;48.626;12.486;2023-05-07T07:00:10;5.07;;;4.57;;
12840;SDS011;6487;48.626;12.486;2023-05-07T07:02:40;4.77;;;4.27;;
12840;SDS011;6487;48.626;12.486;2023-05-07T07:05:10;5.03;;;4.53;;
12840;SDS011;6487;48.626;12.486;2023-05-07T07:07:41;7.43;;;4.90;;
12840;SDS011;6487;48.626;12.486;2023-05-07T07:10:09;4.13;;;3.80;;
12840;SDS011;6487;48.626;12.486;2023-05-07T07:12:40;4.53;;;4.17;;
12840;SDS011;6487;48.626;12.486;2023-05-07T07:15:10;3.60;;;3.30;;
12840;SDS011;6487;48.626;12.486;2023-05-07T07:17:38;4.07;;;3.73;;
12840;SDS011;6487;48.626;12.486;2023-05-07T07:20:09;3.90;;;3.60;;
12840;SDS011;6487;48.626;12.486;2023-05-07T07:22:38;3.47;;;3.20;;
12840;SDS011;6487;48.626;12.486;2023-05-07T07:25:07;5.47;;;3.60;;
12840;SDS011;6487;48.626;12.486;2023-05-07T07:27:37;3.83;;;3.37;;
12840;SDS011;6487;48.626;12.486;2023-05-07T07:30:06;3.30;;;3.10;;
12840;SDS011;6487;48.626;12.486;2023-05-07T07:32:37;8.73;;;3.40;;
12840;SDS011;6487;48.626;12.486;2023-05-07T07:35:06;4.10;;;3.13;;
12840;SDS011;6487;48.626;12.486;2023-05-07T07:37:36;3.60;;;3.30;;
12840;SDS011;6487;48.626;12.486;2023-05-07T07:40:05;3.40;;;3.10;;
12840;SDS011;6487;48.626;12.486;2023-05-07T07:42:35;3.00;;;2.80;;
12840;SDS011;6487;48.626;12.486;2023-05-07T07:45:04;3.47;;;3.00;;
12840;SDS011;6487;48.626;12.486;2023-05-07T07:47:34;3.17;;;2.97;;
12840;SDS011;6487;48.626;12.486;2023-05-07T07:50:03;3.13;;;2.93;;
12840;SDS011;6487;48.626;12.486;2023-05-07T07:52:34;3.77;;;3.00;;
12840;SDS011;6487;48.626;12.486;2023-05-07T07:55:03;3.07;;;2.77;;
12840;SDS011;6487;48.626;12.486;2023-05-07T07:57:35;3.60;;;3.27;;
12840;SDS011;6487;48.626;12.486;2023-05-07T08:00:04;4.47;;;3.30;;
12840;SDS011;6487;48.626;12.486;2023-05-07T08:02:34;3.90;;;3.13;;
12840;SDS011;6487;48.626;12.486;2023-05-07T08:05:03;3.83;;;3.53;;
12840;SDS011;6487;48.626;12.486;2023-05-07T08:07:32;3.73;;;3.43;;
12840;SDS011;6487;48.626;12.486;2023-05-07T08:10:02;3.27;;;3.00;;
12840;SDS011;6487;48.626;12.486;2023-05-07T08:12:31;6.03;;;2.97;;
12840;SDS011;6487;48.626;12.486;2023-05-07T08:14:59;3.60;;;3.30;;
12840;SDS011;6487;48.626;12.486;2023-05-07T08:17:31;3.30;;;3.00;;
12840;SDS011;6487;48.626;12.486;2023-05-07T08:19:59;3.70;;;2.97;;
12840;SDS011;6487;48.626;12.486;2023-05-07T08:22:27;3.40;;;3.10;;
12840;SDS011;6487;48.626;12.486;2023-05-07T08:24:56;3.23;;;2.83;;
12840;SDS011;6487;48.626;12.486;2023-05-07T08:27:27;4.43;;;3.03;;
12840;SDS011;6487;48.626;12.486;2023-05-07T08:29:55;3.00;;;2.80;;
12840;SDS011;6487;48.626;12.486;2023-05-07T08:32:24;3.50;;;3.10;;
12840;SDS011;6487;48.626;12.486;2023-05-07T08:34:52;4.43;;;3.13;;
12840;SDS011;6487;48.626;12.486;2023-05-07T08:37:21;3.53;;;3.23;;
12840;SDS011;6487;48.626;12.486;2023-05-07T08:39:49;4.90;;;3.37;;
12840;SDS011;6487;48.626;12.486;2023-05-07T08:42:17;3.83;;;2.97;;
12840;SDS011;6487;48.626;12.486;2023-05-07T08:44:52;4.30;;;3.40;;
12840;SDS011;6487;48.626;12.486;2023-05-07T08:47:34;3.50;;;3.30;;
12840;SDS011;6487;48.626;12.486;2023-05-07T08:50:11;3.33;;;3.03;;
12840;SDS011;6487;48.626;12.486;2023-05-07T08:52:39;4.50;;;3.33;;
12840;SDS011;6487;48.626;12.486;2023-05-07T08:55:11;4.40;;;3.67;;
12840;SDS011;6487;48.626;12.486;2023-05-07T08:57:41;3.07;;;2.87;;
12840;SDS011;6487;48.626;12.486;2023-05-07T09:00:14;3.10;;;2.90;;
12840;SDS011;6487;48.626;12.486;2023-05-07T09:02:43;3.50;;;3.20;;
12840;SDS011;6487;48.626;12.486;2023-05-07T09:05:12;5.47;;;3.57;;
12840;SDS011;6487;48.626;12.486;2023-05-07T09:07:40;3.27;;;2.97;;
12840;SDS011;6487;48.626;12.486;2023-05-07T09:10:09;3.60;;;3.30;;
12840;SDS011;6487;48.626;12.486;2023-05-07T09:12:38;3.87;;;3.47;;
12840;SDS011;6487;48.626;12.486;2023-05-07T09:15:10;3.57;;;3.27;;
12840;SDS011;6487;48.626;12.486;2023-05-07T09:17:46;4.43;;;3.60;;
12840;SDS011;6487;48.626;12.486;2023-05-07T09:20:14;4.13;;;3.73;;
12840;SDS011;6487;48.626;12.486;2023-05-07T09:22:44;3.60;;;3.30;;
12840;SDS011;6487;48.626;12.486;2023-05-07T09:25:12;3.50;;;3.20;;
12840;SDS011;6487;48.626;12.486;2023-05-07T09:27:43;3.50;;;3.20;;
12840;SDS011;6487;48.626;12.486;2023-05-07T09:30:12;3.80;;;2.90;;
12840;SDS011;6487;48.626;12.486;2023-05-07T09:32:43;3.60;;;3.30;;
12840;SDS011;6487;48.626;12.486;2023-05-07T09:35:16;3.57;;;3.27;;
12840;SDS011;6487;48.626;12.486;2023-05-07T09:37:47;3.40;;;3.10;;
12840;SDS011;6487;48.626;12.486;2023-05-07T09:40:22;3.43;;;3.13;;
12840;SDS011;6487;48.626;12.486;2023-05-07T09:42:52;5.13;;;3.73;;
12840;SDS011;6487;48.626;12.486;2023-05-07T09:45:24;4.40;;;3.40;;
12840;SDS011;6487;48.626;12.486;2023-05-07T09:47:57;3.93;;;3.53;;
12840;SDS011;6487;48.626;12.486;2023-05-07T09:50:27;3.53;;;3.23;;
12840;SDS011;6487;48.626;12.486;2023-05-07T09:52:57;3.87;;;3.10;;
12840;SDS011;6487;48.626;12.486;2023-05-07T09:55:28;3.87;;;2.93;;
12840;SDS011;6487;48.626;12.486;2023-05-07T09:57:58;3.37;;;2.80;;
12840;SDS011;6487;48.626;12.486;2023-05-07T10:00:28;3.73;;;2.80;;
12840;SDS011;6487;48.626;12.486;2023-05-07T10:02:59;2.63;;;2.37;;
12840;SDS011;6487;48.626;12.486;2023-05-07T10:05:29;2.33;;;2.13;;
12840;SDS011;6487;48.626;12.486;2023-05-07T10:08:00;2.85;;;2.65;;
12840;SDS011;6487;48.626;12.486;2023-05-07T10:10:30;2.83;;;2.43;;
12840;SDS011;6487;48.626;12.486;2023-05-07T10:13:00;2.77;;;2.50;;
12840;SDS011;6487;48.626;12.486;2023-05-07T10:15:32;2.83;;;2.22;;
12840;SDS011;6487;48.626;12.486;2023-05-07T10:18:03;3.33;;;2.17;;
12840;SDS011;6487;48.626;12.486;2023-05-07T10:20:35;2.73;;;2.33;;
12840;SDS011;6487;48.626;12.486;2023-05-07T10:23:05;2.60;;;2.40;;
12840;SDS011;6487;48.626;12.486;2023-05-07T10:25:34;3.58;;;2.50;;
12840;SDS011;6487;48.626;12.486;2023-05-07T10:28:04;2.10;;;2.00;;
12840;SDS011;6487;48.626;12.486;2023-05-07T10:30:38;2.43;;;2.23;;
12840;SDS011;6487;48.626;12.486;2023-05-07T10:33:22;2.07;;;1.97;;
12840;SDS011;6487;48.626;12.486;2023-05-07T10:35:55;3.13;;;2.93;;
12840;SDS011;6487;48.626;12.486;2023-05-07T10:38:27;2.87;;;2.60;;
12840;SDS011;6487;48.626;12.486;2023-05-07T10:40:55;3.63;;;3.33;;
12840;SDS011;6487;48.626;12.486;2023-05-07T10:43:24;3.43;;;3.07;;
12840;SDS011;6487;48.626;12.486;2023-05-07T10:46:11;2.90;;;2.70;;
12840;SDS011;6487;48.626;12.486;2023-05-07T10:51:41;2.77;;;2.30;;
12840;SDS011;6487;48.626;12.486;2023-05-07T10:54:17;2.93;;;2.63;;
12840;SDS011;6487;48.626;12.486;2023-05-07T10:56:47;2.67;;;2.50;;
12840;SDS011;6487;48.626;12.486;2023-05-07T11:02:09;2.20;;;2.10;;
12840;SDS011;6487;48.626;12.486;2023-05-07T11:04:42;3.17;;;1.88;;
12840;SDS011;6487;48.626;12.486;2023-05-07T11:10:04;3.95;;;2.47;;
12840;SDS011;6487;48.626;12.486;2023-05-07T11:12:50;1.90;;;1.80;;
12840;SDS011;6487;48.626;12.486;2023-05-07T11:18:16;2.60;;;2.30;;
12840;SDS011;6487;48.626;12.486;2023-05-07T11:20:51;2.50;;;2.30;;
12840;SDS011;6487;48.626;12.486;2023-05-07T11:26:27;2.95;;;1.90;;
12840;SDS011;6487;48.626;12.486;2023-05-07T11:28:58;1.90;;;1.80;;
12840;SDS011;6487;48.626;12.486;2023-05-07T11:31:27;2.45;;;2.25;;
12840;SDS011;6487;48.626;12.486;2023-05-07T11:33:56;1.85;;;1.75;;
12840;SDS011;6487;48.626;12.486;2023-05-07T11:36:31;2.40;;;1.90;;
12840;SDS011;6487;48.626;12.486;2023-05-07T11:39:00;1.77;;;1.67;;
12840;SDS011;6487;48.626;12.486;2023-05-07T11:41:35;2.60;;;2.00;;
12840;SDS011;6487;48.626;12.486;2023-05-07T11:44:04;1.90;;;1.80;;
12840;SDS011;6487;48.626;12.486;2023-05-07T11:46:32;1.75;;;1.65;;
12840;SDS011;6487;48.626;12.486;2023-05-07T11:49:01;3.22;;;1.85;;
12840;SDS011;6487;48.626;12.486;2023-05-07T11:51:32;1.90;;;1.77;;
12840;SDS011;6487;48.626;12.486;2023-05-07T11:54:00;1.55;;;1.38;;
12840;SDS011;6487;48.626;12.486;2023-05-07T11:56:34;1.85;;;1.52;;
12840;SDS011;6487;48.626;12.486;2023-05-07T11:59:03;1.90;;;1.52;;
12840;SDS011;6487;48.626;12.486;2023-05-07T12:01:34;1.60;;;1.50;;
12840;SDS011;6487;48.626;12.486;2023-05-07T12:04:03;2.25;;;1.40;;
12840;SDS011;6487;48.626;12.486;2023-05-07T12:06:37;1.98;;;1.55;;
12840;SDS011;6487;48.626;12.486;2023-05-07T12:09:06;1.67;;;1.42;;
12840;SDS011;6487;48.626;12.486;2023-05-07T12:11:37;2.38;;;1.23;;
12840;SDS011;6487;48.626;12.486;2023-05-07T12:14:07;1.60;;;1.50;;
12840;SDS011;6487;48.626;12.486;2023-05-07T12:16:38;1.70;;;1.60;;
12840;SDS011;6487;48.626;12.486;2023-05-07T12:19:08;1.60;;;1.50;;
12840;SDS011;6487;48.626;12.486;2023-05-07T12:21:42;1.50;;;1.40;;
12840;SDS011;6487;48.626;12.486;2023-05-07T12:24:11;2.55;;;1.45;;
12840;SDS011;6487;48.626;12.486;2023-05-07T12:26:41;1.52;;;1.42;;
12840;SDS011;6487;48.626;12.486;2023-05-07T12:29:11;1.80;;;1.52;;
12840;SDS011;6487;48.626;12.486;2023-05-07T12:31:40;1.60;;;1.50;;
12840;SDS011;6487;48.626;12.486;2023-05-07T12:34:10;1.58;;;1.48;;
12840;SDS011;6487;48.626;12.486;2023-05-07T12:36:43;2.65;;;2.13;;
12840;SDS011;6487;48.626;12.486;2023-05-07T12:39:11;1.90;;;1.70;;
12840;SDS011;6487;48.626;12.486;2023-05-07T12:41:52;1.60;;;1.50;;
12840;SDS011;6487;48.626;12.486;2023-05-07T12:44:22;1.60;;;1.50;;
12840;SDS011;6487;48.626;12.486;2023-05-07T12:46:51;1.67;;;1.38;;
12840;SDS011;6487;48.626;12.486;2023-05-07T12:49:19;1.88;;;1.55;;
12840;SDS011;6487;48.626;12.486;2023-05-07T12:51:52;1.40;;;1.30;;
12840;SDS011;6487;48.626;12.486;2023-05-07T12:54:27;1.70;;;1.60;;
12840;SDS011;6487;48.626;12.486;2023-05-07T12:57:00;2.10;;;1.98;;
12840;SDS011;6487;48.626;12.486;2023-05-07T12:59:33;2.22;;;1.70;;
12840;SDS011;6487;48.626;12.486;2023-05-07T13:02:03;3.70;;;1.77;;
12840;SDS011;6487;48.626;12.486;2023-05-07T13:04:32;1.40;;;1.30;;
12840;SDS011;6487;48.626;12.486;2023-05-07T13:07:02;2.05;;;1.70;;
12840;SDS011;6487;48.626;12.486;2023-05-07T13:09:31;1.77;;;1.67;;
12840;SDS011;6487;48.626;12.486;2023-05-07T13:11:59;2.53;;;1.58;;
12840;SDS011;6487;48.626;12.486;2023-05-07T13:14:28;1.38;;;1.27;;
12840;SDS011;6487;48.626;12.486;2023-05-07T13:16:56;1.67;;;1.58;;
12840;SDS011;6487;48.626;12.486;2023-05-07T13:19:27;1.53;;;1.40;;
12840;SDS011;6487;48.626;12.486;2023-05-07T13:21:59;1.30;;;1.20;;
12840;SDS011;6487;48.626;12.486;2023-05-07T13:24:29;1.57;;;1.43;;
12840;SDS011;6487;48.626;12.486;2023-05-07T13:26:57;2.07;;;1.43;;
12840;SDS011;6487;48.626;12.486;2023-05-07T13:29:26;4.67;;;1.60;;
12840;SDS011;6487;48.626;12.486;2023-05-07T13:31:56;2.07;;;1.90;;
12840;SDS011;6487;48.626;12.486;2023-05-07T13:34:25;2.47;;;1.33;;
12840;SDS011;6487;48.626;12.486;2023-05-07T13:36:55;1.90;;;1.50;;
12840;SDS011;6487;48.626;12.486;2023-05-07T13:39:24;1.50;;;1.40;;
12840;SDS011;6487;48.626;12.486;2023-05-07T13:41:54;3.78;;;1.80;;
12840;SDS011;6487;48.626;12.486;2023-05-07T13:44:22;2.33;;;1.70;;
12840;SDS011;6487;48.626;12.486;2023-05-07T13:46:55;2.88;;;2.10;;
12840;SDS011;6487;48.626;12.486;2023-05-07T13:49:24;3.92;;;1.80;;
12840;SDS011;6487;48.626;12.486;2023-05-07T13:51:52;1.67;;;1.50;;
12840;SDS011;6487;48.626;12.486;2023-05-07T13:54:21;2.53;;;1.50;;
12840;SDS011;6487;48.626;12.486;2023-05-07T13:56:54;1.88;;;1.73;;
12840;SDS011;6487;48.626;12.486;2023-05-07T13:59:22;4.40;;;1.90;;
12840;SDS011;6487;48.626;12.486;2023-05-07T14:01:51;2.43;;;2.10;;
12840;SDS011;6487;48.626;12.486;2023-05-07T14:04:19;2.20;;;1.60;;
12840;SDS011;6487;48.626;12.486;2023-05-07T14:06:47;2.00;;;1.85;;
12840;SDS011;6487;48.626;12.486;2023-05-07T14:09:16;1.63;;;1.53;;
12840;SDS011;6487;48.626;12.486;2023-05-07T14:11:44;2.17;;;1.50;;
12840;SDS011;6487;48.626;12.486;2023-05-07T14:14:16;2.37;;;1.70;;
12840;SDS011;6487;48.626;12.486;2023-05-07T14:16:45;2.30;;;1.67;;
12840;SDS011;6487;48.626;12.486;2023-05-07T14:19:16;2.22;;;1.63;;
12840;SDS011;6487;48.626;12.486;2023-05-07T14:21:44;2.00;;;1.80;;
12840;SDS011;6487;48.626;12.486;2023-05-07T14:24:13;1.50;;;1.40;;
12840;SDS011;6487;48.626;12.486;2023-05-07T14:27:03;2.70;;;2.20;;
12840;SDS011;6487;48.626;12.486;2023-05-07T14:29:33;4.47;;;2.10;;
12840;SDS011;6487;48.626;12.486;2023-05-07T14:32:02;2.53;;;2.00;;
12840;SDS011;6487;48.626;12.486;2023-05-07T14:34:31;1.80;;;1.70;;
12840;SDS011;6487;48.626;12.486;2023-05-07T14:37:02;1.77;;;1.67;;
12840;SDS011;6487;48.626;12.486;2023-05-07T14:39:33;2.33;;;1.93;;
12840;SDS011;6487;48.626;12.486;2023-05-07T14:42:02;1.87;;;1.77;;
12840;SDS011;6487;48.626;12.486;2023-05-07T14:44:31;2.43;;;2.23;;
12840;SDS011;6487;48.626;12.486;2023-05-07T14:47:00;2.47;;;2.27;;
12840;SDS011;6487;48.626;12.486;2023-05-07T14:49:29;2.80;;;2.60;;
12840;SDS011;6487;48.626;12.486;2023-05-07T14:52:01;2.57;;;2.37;;
12840;SDS011;6487;48.626;12.486;2023-05-07T14:54:30;2.43;;;2.23;;
12840;SDS011;6487;48.626;12.486;2023-05-07T14:57:04;2.87;;;2.60;;
12840;SDS011;6487;48.626;12.486;2023-05-07T14:59:39;2.73;;;2.53;;
12840;SDS011;6487;48.626;12.486;2023-05-07T15:02:09;2.67;;;2.47;;
12840;SDS011;6487;48.626;12.486;2023-05-07T15:04:40;2.33;;;2.13;;
12840;SDS011;6487;48.626;12.486;2023-05-07T15:07:12;2.53;;;2.33;;
12840;SDS011;6487;48.626;12.486;2023-05-07T15:09:41;2.53;;;2.33;;
12840;SDS011;6487;48.626;12.486;2023-05-07T15:12:10;3.13;;;2.40;;
12840;SDS011;6487;48.626;12.486;2023-05-07T15:14:41;2.43;;;2.23;;
12840;SDS011;6487;48.626;12.486;2023-05-07T15:17:11;2.80;;;2.60;;
12840;SDS011;6487;48.626;12.486;2023-05-07T15:19:41;2.67;;;2.40;;
12840;SDS011;6487;48.626;12.486;2023-05-07T15:22:12;4.03;;;2.53;;